Time;durP1;ratioP1;P1;durP2;ratioP2;P2;SDS_P1;SDS_P2;PMS_P1;PMS_P2;Temp;Humidity;BMP_temperature;BMP_pressure;BME280_temperature;BME280_humidity;BME280_pressure;Samples;Min_cycle;Max_cycle;Signal;HPM_P1;HPM_P2
2023/12/21 00:01:40;;;;;;;12.13;3.47;;;;;;;;;;4848673;29;20707;-82
2023/12/21 00:04:07;;;;;;;13.30;3.47;;;;;;;;;;4821052;29;20050;-82
2023/12/21 00:06:33;;;;;;;16.15;4.20;;;;;;;;;;4836673;29;20046;-82
2023/12/21 00:08:59;;;;;;;15.13;3.58;;;;;;;;;;4840427;29;20057;-83
2023/12/21 00:11:25;;;;;;;11.52;3.38;;;;;;;;;;4836050;29;20875;-82
2023/12/21 00:13:51;;;;;;;15.93;3.78;;;;;;;;;;4837386;29;20455;-82
2023/12/21 00:16:17;;;;;;;15.55;3.55;;;;;;;;;;4837308;29;20077;-83
2023/12/21 00:18:43;;;;;;;18.77;4.07;;;;;;;;;;4836322;29;20122;-82
2023/12/21 00:21:09;;;;;;;13.70;3.80;;;;;;;;;;4836703;29;20046;-82
2023/12/21 00:23:35;;;;;;;14.98;4.00;;;;;;;;;;4835604;29;20114;-82
2023/12/21 00:26:01;;;;;;;16.08;3.90;;;;;;;;;;4836983;29;20107;-82
2023/12/21 00:28:27;;;;;;;12.32;3.55;;;;;;;;;;4836812;29;20053;-83
2023/12/21 00:30:53;;;;;;;17.38;4.32;;;;;;;;;;4814378;29;20054;-83
2023/12/21 00:33:19;;;;;;;13.48;3.90;;;;;;;;;;4847287;29;20496;-82
2023/12/21 00:35:45;;;;;;;16.70;4.22;;;;;;;;;;4837424;29;20058;-82
2023/12/21 00:38:11;;;;;;;14.05;3.80;;;;;;;;;;4835972;29;20114;-83
2023/12/21 00:40:37;;;;;;;12.65;4.00;;;;;;;;;;4837820;29;20148;-83
2023/12/21 00:43:03;;;;;;;13.68;3.53;;;;;;;;;;4834669;29;20058;-83
2023/12/21 00:45:30;;;;;;;15.52;3.90;;;;;;;;;;4834262;29;20094;-83
2023/12/21 00:47:56;;;;;;;15.45;3.70;;;;;;;;;;4836695;29;20462;-83
2023/12/21 00:50:22;;;;;;;14.93;4.22;;;;;;;;;;4836247;29;20050;-82
2023/12/21 00:52:48;;;;;;;21.15;5.13;;;;;;;;;;4836346;29;20099;-82
2023/12/21 00:55:14;;;;;;;18.23;4.53;;;;;;;;;;4838584;29;20405;-82
2023/12/21 00:57:40;;;;;;;18.95;4.07;;;;;;;;;;4835595;29;20046;-83
2023/12/21 01:00:07;;;;;;;12.27;4.13;;;;;;;;;;4836710;29;20102;-83
2023/12/21 01:02:33;;;;;;;18.05;3.80;;;;;;;;;;4836878;29;20401;-83
2023/12/21 01:04:59;;;;;;;14.07;3.72;;;;;;;;;;4835745;29;20041;-83
2023/12/21 01:07:26;;;;;;;11.05;3.95;;;;;;;;;;4837220;29;20137;-83
2023/12/21 01:09:52;;;;;;;14.05;3.95;;;;;;;;;;4831540;29;20385;-82
2023/12/21 01:12:18;;;;;;;12.10;3.80;;;;;;;;;;4852920;29;20054;-83
2023/12/21 01:14:44;;;;;;;11.43;3.75;;;;;;;;;;4840882;29;20050;-83
2023/12/21 01:17:10;;;;;;;14.27;3.67;;;;;;;;;;4839476;29;20437;-83
2023/12/21 01:19:36;;;;;;;14.70;4.18;;;;;;;;;;4840287;29;20050;-84
2023/12/21 01:22:02;;;;;;;11.93;4.47;;;;;;;;;;4838967;29;20496;-82
2023/12/21 01:24:28;;;;;;;15.60;3.95;;;;;;;;;;4839065;29;20579;-83
2023/12/21 01:26:54;;;;;;;15.18;4.05;;;;;;;;;;4839217;29;20680;-83
2023/12/21 01:29:20;;;;;;;15.90;4.28;;;;;;;;;;4823198;29;20125;-82
2023/12/21 01:31:47;;;;;;;12.20;3.80;;;;;;;;;;4852898;29;20166;-83
2023/12/21 01:34:13;;;;;;;16.48;4.07;;;;;;;;;;4846576;29;20055;-83
2023/12/21 01:36:39;;;;;;;17.63;4.40;;;;;;;;;;4838145;29;20526;-83
2023/12/21 01:39:06;;;;;;;12.13;3.50;;;;;;;;;;4839065;29;20085;-83
2023/12/21 01:41:33;;;;;;;13.48;3.67;;;;;;;;;;4837848;29;20062;-83
2023/12/21 01:43:59;;;;;;;16.38;3.53;;;;;;;;;;4838646;29;20064;-84
2023/12/21 01:46:25;;;;;;;14.07;3.30;;;;;;;;;;4839859;29;20053;-84
2023/12/21 01:48:51;;;;;;;11.35;3.42;;;;;;;;;;4838623;29;20046;-84
2023/12/21 01:51:18;;;;;;;14.60;3.20;;;;;;;;;;4844116;29;20061;-83
2023/12/21 01:53:45;;;;;;;12.82;3.75;;;;;;;;;;4852720;29;20412;-83
2023/12/21 01:56:11;;;;;;;12.90;3.50;;;;;;;;;;4838044;29;20046;-83
2023/12/21 01:58:37;;;;;;;15.40;3.65;;;;;;;;;;4844331;29;20049;-83
2023/12/21 02:01:04;;;;;;;12.07;3.83;;;;;;;;;;4839703;29;20106;-83
2023/12/21 02:03:31;;;;;;;11.75;3.47;;;;;;;;;;4838489;29;20046;-84
2023/12/21 02:05:57;;;;;;;18.48;3.97;;;;;;;;;;4839158;29;20081;-84
2023/12/21 02:08:23;;;;;;;12.45;4.05;;;;;;;;;;4837965;29;20085;-84
2023/12/21 02:10:49;;;;;;;10.25;3.63;;;;;;;;;;4838194;29;20051;-84
2023/12/21 02:13:16;;;;;;;10.05;3.10;;;;;;;;;;4836354;29;20673;-83
2023/12/21 02:15:42;;;;;;;12.82;3.35;;;;;;;;;;4838384;29;20523;-84
2023/12/21 02:18:09;;;;;;;15.35;3.80;;;;;;;;;;4836043;29;20049;-83
2023/12/21 02:20:35;;;;;;;12.18;3.20;;;;;;;;;;4838514;29;20054;-83
2023/12/21 02:23:03;;;;;;;13.15;3.20;;;;;;;;;;4835218;29;20413;-83
2023/12/21 02:25:30;;;;;;;10.65;2.88;;;;;;;;;;4841202;29;20062;-83
2023/12/21 02:27:57;;;;;;;14.27;3.63;;;;;;;;;;4827672;29;20101;-83
2023/12/21 02:30:23;;;;;;;10.98;3.53;;;;;;;;;;4837892;29;20110;-83
2023/12/21 02:32:49;;;;;;;13.38;3.20;;;;;;;;;;4836339;29;20052;-84
2023/12/21 02:35:15;;;;;;;10.07;2.88;;;;;;;;;;4837626;29;20436;-83
2023/12/21 02:37:41;;;;;;;14.25;3.63;;;;;;;;;;4852408;29;20505;-84
2023/12/21 02:40:07;;;;;;;11.98;3.03;;;;;;;;;;4838166;29;20186;-84
2023/12/21 02:42:33;;;;;;;8.57;2.70;;;;;;;;;;4836965;29;20057;-84
2023/12/21 02:44:59;;;;;;;14.88;3.00;;;;;;;;;;4837309;29;20421;-84
2023/12/21 02:47:25;;;;;;;10.77;2.90;;;;;;;;;;4837729;29;20519;-84
2023/12/21 02:49:51;;;;;;;9.73;2.70;;;;;;;;;;4837099;29;20049;-83
2023/12/21 02:52:17;;;;;;;10.55;2.88;;;;;;;;;;4837142;29;20046;-84
2023/12/21 02:54:43;;;;;;;12.75;3.25;;;;;;;;;;4837974;29;20413;-83
2023/12/21 02:57:09;;;;;;;8.93;3.00;;;;;;;;;;4841289;29;20050;-83
2023/12/21 02:59:35;;;;;;;17.73;3.38;;;;;;;;;;4838270;29;20118;-84
2023/12/21 03:02:01;;;;;;;10.48;3.22;;;;;;;;;;4837303;29;20041;-83
2023/12/21 03:04:27;;;;;;;9.18;3.17;;;;;;;;;;4838077;29;20531;-83
2023/12/21 03:06:53;;;;;;;10.20;3.70;;;;;;;;;;4836127;29;20042;-83
2023/12/21 03:09:19;;;;;;;9.23;3.38;;;;;;;;;;4837533;29;20151;-84
2023/12/21 03:11:45;;;;;;;7.85;3.15;;;;;;;;;;4843369;29;20989;-83
2023/12/21 03:14:11;;;;;;;10.75;3.53;;;;;;;;;;4836127;29;20128;-83
2023/12/21 03:16:37;;;;;;;11.98;3.17;;;;;;;;;;4835734;29;20046;-85
2023/12/21 03:19:03;;;;;;;9.02;3.33;;;;;;;;;;4831790;29;20118;-84
2023/12/21 03:21:30;;;;;;;12.07;3.40;;;;;;;;;;4852476;29;20623;-84
2023/12/21 03:23:56;;;;;;;12.85;3.20;;;;;;;;;;4819758;29;20065;-84
2023/12/21 03:26:22;;;;;;;8.02;3.10;;;;;;;;;;4836860;29;20093;-84
2023/12/21 03:28:48;;;;;;;11.23;3.13;;;;;;;;;;4836264;29;20053;-86
2023/12/21 03:31:17;;;;;;;8.68;2.85;;;;;;;;;;4851291;29;20062;-85
2023/12/21 03:33:43;;;;;;;9.82;2.60;;;;;;;;;;4844583;29;20078;-84
2023/12/21 03:36:11;;;;;;;10.05;2.80;;;;;;;;;;4835508;29;20581;-84
2023/12/21 03:38:37;;;;;;;10.15;2.88;;;;;;;;;;4836217;29;20529;-85
2023/12/21 03:41:03;;;;;;;8.35;2.55;;;;;;;;;;4836410;29;20077;-85
2023/12/21 03:43:29;;;;;;;8.48;2.80;;;;;;;;;;4835442;29;20060;-85
2023/12/21 03:45:56;;;;;;;8.68;2.80;;;;;;;;;;4836508;29;20115;-84
2023/12/21 03:48:22;;;;;;;7.63;2.88;;;;;;;;;;4835886;29;20049;-85
2023/12/21 03:50:48;;;;;;;5.10;2.80;;;;;;;;;;4836512;29;20050;-84
2023/12/21 03:53:16;;;;;;;9.70;2.70;;;;;;;;;;4836191;29;20726;-85
2023/12/21 03:55:42;;;;;;;6.45;2.65;;;;;;;;;;4837727;29;20061;-85
2023/12/21 03:58:08;;;;;;;8.15;2.53;;;;;;;;;;4836062;29;20041;-84
2023/12/21 04:00:34;;;;;;;9.65;2.88;;;;;;;;;;4836350;29;20060;-84
2023/12/21 04:03:04;;;;;;;6.35;2.72;;;;;;;;;;4836172;29;20046;-84
2023/12/21 04:05:30;;;;;;;8.15;3.00;;;;;;;;;;4841488;29;20113;-84
2023/12/21 04:07:56;;;;;;;6.03;3.00;;;;;;;;;;4820148;29;20053;-83
2023/12/21 04:10:22;;;;;;;9.02;3.22;;;;;;;;;;4834985;29;20477;-84
2023/12/21 04:12:48;;;;;;;7.70;3.20;;;;;;;;;;4836170;29;20045;-84
2023/12/21 04:15:16;;;;;;;7.03;3.70;;;;;;;;;;4836444;29;20046;-83
2023/12/21 04:17:42;;;;;;;10.43;3.33;;;;;;;;;;4835614;29;20114;-85
2023/12/21 04:20:08;;;;;;;6.18;2.85;;;;;;;;;;4836578;29;20053;-84
2023/12/21 04:22:34;;;;;;;9.90;4.00;;;;;;;;;;4834772;29;20061;-84
2023/12/21 04:25:00;;;;;;;9.63;3.97;;;;;;;;;;4835274;29;20050;-83
2023/12/21 04:27:28;;;;;;;6.00;2.75;;;;;;;;;;4836002;29;20038;-84
2023/12/21 04:29:54;;;;;;;8.85;2.92;;;;;;;;;;4835589;29;20474;-84
2023/12/21 04:32:20;;;;;;;6.60;3.00;;;;;;;;;;4836218;29;20110;-84
2023/12/21 04:34:46;;;;;;;6.32;2.95;;;;;;;;;;4834832;29;20521;-83
2023/12/21 04:37:13;;;;;;;7.43;3.15;;;;;;;;;;4834990;29;20165;-84
2023/12/21 04:39:40;;;;;;;14.40;3.70;;;;;;;;;;4835218;29;20521;-84
2023/12/21 04:42:06;;;;;;;9.25;3.42;;;;;;;;;;4840104;29;20077;-83
2023/12/21 04:44:32;;;;;;;9.30;3.35;;;;;;;;;;4835139;29;20050;-84
2023/12/21 04:46:58;;;;;;;13.25;3.80;;;;;;;;;;4852631;29;20050;-84
2023/12/21 04:49:26;;;;;;;14.15;3.38;;;;;;;;;;4846170;29;20042;-84
2023/12/21 04:51:52;;;;;;;11.65;3.67;;;;;;;;;;4835945;29;20105;-85
2023/12/21 04:54:18;;;;;;;10.77;3.63;;;;;;;;;;4838918;29;20054;-84
2023/12/21 04:56:44;;;;;;;9.23;3.50;;;;;;;;;;4838998;29;20199;-85
2023/12/21 04:59:11;;;;;;;10.50;3.47;;;;;;;;;;4847343;29;20599;-84
2023/12/21 05:01:37;;;;;;;11.13;3.30;;;;;;;;;;4839517;29;20076;-84
2023/12/21 05:04:03;;;;;;;10.35;3.25;;;;;;;;;;4833052;29;20355;-84
2023/12/21 05:06:29;;;;;;;8.68;3.05;;;;;;;;;;4839549;29;20074;-84
2023/12/21 05:08:56;;;;;;;9.90;3.50;;;;;;;;;;4839175;29;20137;-84
2023/12/21 05:11:23;;;;;;;9.10;3.60;;;;;;;;;;4839450;29;20058;-86
2023/12/21 05:13:50;;;;;;;5.53;3.00;;;;;;;;;;4835454;29;20054;-84
2023/12/21 05:16:16;;;;;;;12.52;3.35;;;;;;;;;;4833995;29;20050;-84
2023/12/21 05:18:41;;;;;;;9.50;3.38;;;;;;;;;;4837897;29;20073;-85
2023/12/21 05:21:09;;;;;;;10.23;3.67;;;;;;;;;;4854553;29;20066;-84
2023/12/21 05:23:35;;;;;;;9.40;3.30;;;;;;;;;;4838007;29;20081;-84
2023/12/21 05:26:01;;;;;;;8.93;3.10;;;;;;;;;;4854535;29;20050;-85
2023/12/21 05:28:27;;;;;;;9.80;3.25;;;;;;;;;;4835602;29;20054;-85
2023/12/21 05:30:53;;;;;;;8.23;3.28;;;;;;;;;;4837426;29;20126;-85
2023/12/21 05:33:19;;;;;;;7.85;2.70;;;;;;;;;;4839740;29;20129;-85
2023/12/21 05:35:45;;;;;;;10.68;2.83;;;;;;;;;;4838450;29;20428;-83
2023/12/21 05:38:11;;;;;;;10.95;2.92;;;;;;;;;;4840313;29;20046;-85
2023/12/21 05:40:37;;;;;;;9.43;2.85;;;;;;;;;;4840198;29;20141;-84
2023/12/21 05:43:03;;;;;;;14.20;3.00;;;;;;;;;;4839494;29;20100;-84
2023/12/21 05:45:29;;;;;;;9.30;2.60;;;;;;;;;;4839540;29;20057;-84
2023/12/21 05:47:58;;;;;;;9.13;2.63;;;;;;;;;;4838226;29;20054;-84
2023/12/21 05:50:24;;;;;;;11.75;2.70;;;;;;;;;;4840093;29;20050;-84
2023/12/21 05:52:51;;;;;;;10.55;3.13;;;;;;;;;;4839838;29;20054;-85
2023/12/21 05:55:17;;;;;;;11.55;2.40;;;;;;;;;;4838548;29;20064;-84
2023/12/21 05:57:44;;;;;;;8.77;2.30;;;;;;;;;;4854599;29;20503;-83
2023/12/21 06:00:10;;;;;;;10.63;2.70;;;;;;;;;;4839175;29;20045;-85
2023/12/21 06:02:36;;;;;;;9.10;2.55;;;;;;;;;;4835919;29;20134;-85
2023/12/21 06:05:03;;;;;;;9.52;2.17;;;;;;;;;;4834756;29;20148;-84
2023/12/21 06:07:29;;;;;;;9.15;2.67;;;;;;;;;;4837983;29;20053;-85
2023/12/21 06:09:55;;;;;;;12.98;2.80;;;;;;;;;;4836741;29;20398;-87
2023/12/21 06:12:21;;;;;;;8.00;2.30;;;;;;;;;;4836125;29;20629;-86
2023/12/21 06:14:48;;;;;;;9.02;2.10;;;;;;;;;;4836596;29;20497;-86
2023/12/21 06:17:14;;;;;;;10.00;2.40;;;;;;;;;;4837730;29;20046;-84
2023/12/21 06:19:42;;;;;;;8.38;2.20;;;;;;;;;;4838952;29;20062;-84
2023/12/21 06:22:08;;;;;;;7.63;2.55;;;;;;;;;;4836415;29;20084;-83
2023/12/21 06:24:34;;;;;;;8.80;2.33;;;;;;;;;;4839914;29;20073;-85
2023/12/21 06:27:00;;;;;;;13.18;2.40;;;;;;;;;;4823041;29;20287;-86
2023/12/21 06:29:28;;;;;;;10.52;2.38;;;;;;;;;;4824386;29;20606;-85
2023/12/21 06:31:54;;;;;;;9.93;2.63;;;;;;;;;;4837446;29;20049;-87
2023/12/21 06:34:21;;;;;;;11.60;3.00;;;;;;;;;;4830877;29;20340;-84
2023/12/21 06:36:47;;;;;;;8.45;2.72;;;;;;;;;;4835782;29;20057;-85
2023/12/21 06:39:13;;;;;;;13.82;3.17;;;;;;;;;;4836784;29;20054;-86
2023/12/21 06:41:39;;;;;;;10.90;2.42;;;;;;;;;;4837477;29;20530;-86
2023/12/21 06:44:05;;;;;;;10.70;2.60;;;;;;;;;;4841521;29;20046;-84
2023/12/21 06:46:31;;;;;;;9.10;2.65;;;;;;;;;;4837667;29;20054;-87
2023/12/21 06:48:57;;;;;;;7.70;2.40;;;;;;;;;;4836222;29;20049;-85
2023/12/21 06:51:23;;;;;;;7.53;2.60;;;;;;;;;;4836975;29;20050;-86
2023/12/21 06:53:49;;;;;;;8.82;2.22;;;;;;;;;;4835428;29;20056;-85
2023/12/21 06:56:17;;;;;;;5.40;2.30;;;;;;;;;;4835213;29;20125;-84
2023/12/21 06:58:43;;;;;;;10.07;2.35;;;;;;;;;;4826784;29;20050;-84
2023/12/21 07:01:10;;;;;;;8.13;1.95;;;;;;;;;;4837088;29;20042;-84
2023/12/21 07:03:36;;;;;;;7.65;1.80;;;;;;;;;;4838906;29;20777;-83
2023/12/21 07:06:02;;;;;;;8.52;2.35;;;;;;;;;;4835179;29;20161;-84
2023/12/21 07:08:28;;;;;;;5.57;2.40;;;;;;;;;;4836980;29;20073;-83
2023/12/21 07:10:54;;;;;;;6.28;1.92;;;;;;;;;;4830494;29;20050;-82
2023/12/21 07:13:20;;;;;;;7.95;2.03;;;;;;;;;;4819123;29;20046;-81
2023/12/21 07:15:46;;;;;;;3.97;2.08;;;;;;;;;;4821473;29;20069;-81
2023/12/21 07:18:12;;;;;;;4.70;1.80;;;;;;;;;;4820572;29;20054;-83
2023/12/21 07:20:38;;;;;;;5.70;1.98;;;;;;;;;;4818741;29;20548;-82
2023/12/21 07:23:04;;;;;;;6.05;1.88;;;;;;;;;;4819154;29;20054;-82
2023/12/21 07:25:31;;;;;;;4.72;1.70;;;;;;;;;;4836989;29;20160;-83
2023/12/21 07:27:57;;;;;;;6.70;2.00;;;;;;;;;;4836640;29;20485;-83
2023/12/21 07:30:23;;;;;;;5.18;1.45;;;;;;;;;;4852297;29;20049;-83
2023/12/21 07:32:49;;;;;;;5.50;1.90;;;;;;;;;;4852304;29;20401;-84
2023/12/21 07:35:15;;;;;;;4.20;1.60;;;;;;;;;;4852546;29;20058;-84
2023/12/21 07:37:42;;;;;;;6.70;1.90;;;;;;;;;;4844937;29;20057;-84
2023/12/21 07:40:08;;;;;;;3.53;1.75;;;;;;;;;;4852100;29;20046;-85
2023/12/21 07:42:38;;;;;;;5.32;1.77;;;;;;;;;;4838722;29;20093;-83
2023/12/21 07:45:04;;;;;;;5.28;1.65;;;;;;;;;;4836644;29;20100;-83
2023/12/21 07:47:30;;;;;;;3.50;1.52;;;;;;;;;;4830144;29;20103;-84
2023/12/21 07:49:56;;;;;;;5.13;1.58;;;;;;;;;;4829575;29;20054;-84
2023/12/21 07:52:22;;;;;;;3.67;1.60;;;;;;;;;;4837171;29;20054;-84
2023/12/21 07:54:49;;;;;;;5.05;1.83;;;;;;;;;;4838002;29;20628;-86
2023/12/21 07:57:15;;;;;;;4.05;1.50;;;;;;;;;;4838461;29;20037;-86
2023/12/21 07:59:41;;;;;;;4.10;1.45;;;;;;;;;;4836397;29;20362;-86
2023/12/21 08:02:07;;;;;;;3.95;1.50;;;;;;;;;;4826437;29;20054;-86
2023/12/21 08:04:33;;;;;;;2.75;1.58;;;;;;;;;;4827501;29;20048;-86
2023/12/21 08:06:59;;;;;;;2.58;1.52;;;;;;;;;;4837517;29;20045;-85
2023/12/21 08:09:25;;;;;;;2.58;1.35;;;;;;;;;;4851691;29;20074;-85
2023/12/21 08:11:52;;;;;;;2.38;1.30;;;;;;;;;;4837379;29;20082;-88
2023/12/21 08:14:19;;;;;;;4.38;1.50;;;;;;;;;;4838851;29;20091;-87
2023/12/21 08:16:45;;;;;;;3.92;1.45;;;;;;;;;;4836514;29;20065;-86
2023/12/21 08:19:11;;;;;;;2.30;1.08;;;;;;;;;;4837362;29;20050;-86
2023/12/21 08:21:37;;;;;;;4.35;1.35;;;;;;;;;;4838640;29;20046;-88
2023/12/21 08:24:03;;;;;;;2.83;1.00;;;;;;;;;;4841209;29;20050;-88
2023/12/21 08:26:29;;;;;;;2.88;1.15;;;;;;;;;;4840102;29;20082;-87
2023/12/21 08:28:55;;;;;;;3.08;1.00;;;;;;;;;;4839665;29;20062;-86
2023/12/21 08:31:28;;;;;;;1.65;0.80;;;;;;;;;;4841854;29;20054;-87
2023/12/21 08:33:54;;;;;;;2.30;1.10;;;;;;;;;;4841572;29;20050;-88
2023/12/21 08:36:20;;;;;;;2.75;0.77;;;;;;;;;;4840735;29;20145;-87
2023/12/21 08:38:46;;;;;;;1.83;0.82;;;;;;;;;;4839874;29;20087;-86
2023/12/21 08:41:12;;;;;;;3.22;0.95;;;;;;;;;;4850913;29;20110;-85
2023/12/21 08:43:38;;;;;;;2.35;0.90;;;;;;;;;;4838455;29;20058;-84
2023/12/21 08:46:04;;;;;;;2.83;0.98;;;;;;;;;;4837730;29;20757;-84
2023/12/21 08:48:30;;;;;;;2.00;1.10;;;;;;;;;;4854022;29;20146;-86
2023/12/21 08:50:56;;;;;;;2.70;1.10;;;;;;;;;;4853561;29;20046;-84
2023/12/21 08:53:22;;;;;;;2.70;1.02;;;;;;;;;;4831067;29;20054;-85
2023/12/21 08:55:48;;;;;;;2.45;1.23;;;;;;;;;;4850718;29;20106;-87
2023/12/21 08:58:15;;;;;;;3.90;1.35;;;;;;;;;;4839796;29;20050;-87
2023/12/21 09:00:41;;;;;;;4.78;1.40;;;;;;;;;;4839928;29;20493;-87
2023/12/21 09:03:07;;;;;;;3.53;1.40;;;;;;;;;;4839269;29;20110;-86
2023/12/21 09:05:33;;;;;;;5.63;1.30;;;;;;;;;;4839539;29;20409;-88
2023/12/21 09:07:59;;;;;;;3.25;1.50;;;;;;;;;;4835787;29;20096;-87
2023/12/21 09:10:25;;;;;;;5.35;1.45;;;;;;;;;;4840300;29;20077;-88
2023/12/21 09:12:51;;;;;;;5.95;1.65;;;;;;;;;;4839108;29;20061;-87
2023/12/21 09:15:17;;;;;;;4.82;1.60;;;;;;;;;;4840640;29;20057;-87
2023/12/21 09:17:43;;;;;;;8.55;1.90;;;;;;;;;;4838970;29;20050;-84
2023/12/21 09:20:10;;;;;;;4.85;1.63;;;;;;;;;;4835703;29;20642;-87
2023/12/21 09:22:37;;;;;;;9.00;2.10;;;;;;;;;;4839349;29;20764;-86
2023/12/21 09:25:03;;;;;;;7.05;1.50;;;;;;;;;;4839272;29;20190;-84
2023/12/21 09:27:30;;;;;;;6.50;1.83;;;;;;;;;;4838044;29;20050;-85
2023/12/21 09:29:57;;;;;;;5.07;1.80;;;;;;;;;;4838329;29;20493;-86
2023/12/21 09:32:23;;;;;;;4.82;1.42;;;;;;;;;;4839733;29;20061;-85
2023/12/21 09:34:49;;;;;;;7.65;1.40;;;;;;;;;;4823072;29;20058;-87
2023/12/21 09:37:16;;;;;;;4.65;1.20;;;;;;;;;;4838608;29;20190;-85
2023/12/21 09:39:42;;;;;;;5.68;1.35;;;;;;;;;;4839004;29;20058;-86
2023/12/21 09:42:10;;;;;;;7.03;1.42;;;;;;;;;;4838544;29;20113;-85
2023/12/21 09:44:37;;;;;;;6.82;1.50;;;;;;;;;;4837676;29;20187;-85
2023/12/21 09:47:07;;;;;;;6.50;1.50;;;;;;;;;;4838860;29;20140;-87
2023/12/21 09:49:36;;;;;;;4.50;1.33;;;;;;;;;;4838653;29;20213;-86
2023/12/21 09:52:07;;;;;;;8.18;1.40;;;;;;;;;;4838129;29;20222;-86
2023/12/21 09:54:33;;;;;;;9.52;1.73;;;;;;;;;;4838051;29;20421;-86
2023/12/21 09:57:00;;;;;;;5.97;1.48;;;;;;;;;;4837086;29;20061;-86
2023/12/21 09:59:30;;;;;;;5.50;1.35;;;;;;;;;;4833785;29;20069;-86
2023/12/21 10:01:56;;;;;;;6.78;1.88;;;;;;;;;;4838509;29;20121;-86
2023/12/21 10:04:22;;;;;;;9.20;1.90;;;;;;;;;;4838613;29;20420;-86
2023/12/21 10:06:48;;;;;;;9.13;1.70;;;;;;;;;;4829625;29;20046;-86
2023/12/21 10:09:15;;;;;;;8.20;1.95;;;;;;;;;;4837212;29;20042;-86
2023/12/21 10:11:41;;;;;;;10.82;2.13;;;;;;;;;;4837408;29;20155;-85
2023/12/21 10:14:21;;;;;;;9.88;2.38;;;;;;;;;;4837048;29;20056;-85
2023/12/21 10:16:47;;;;;;;8.65;2.20;;;;;;;;;;4838249;29;20050;-88
2023/12/21 10:19:13;;;;;;;13.98;2.15;;;;;;;;;;4838538;29;20057;-86
2023/12/21 10:21:42;;;;;;;9.55;2.67;;;;;;;;;;4839499;29;20130;-87
2023/12/21 10:24:10;;;;;;;11.38;2.53;;;;;;;;;;4839108;29;20053;-85
2023/12/21 10:26:46;;;;;;;14.05;2.90;;;;;;;;;;4837789;29;20058;-85
2023/12/21 10:29:15;;;;;;;13.32;2.10;;;;;;;;;;4838290;29;20060;-87
2023/12/21 10:31:45;;;;;;;11.55;2.00;;;;;;;;;;4839180;29;20065;-87
2023/12/21 10:34:11;;;;;;;9.18;2.28;;;;;;;;;;4838278;29;20564;-85
2023/12/21 10:36:42;;;;;;;10.10;2.33;;;;;;;;;;4839243;29;20072;-85
2023/12/21 10:39:09;;;;;;;11.43;2.53;;;;;;;;;;4808755;29;20138;-86
2023/12/21 10:41:35;;;;;;;8.80;1.67;;;;;;;;;;4819809;29;20131;-86
2023/12/21 10:44:01;;;;;;;7.45;1.63;;;;;;;;;;4818723;29;20131;-85
2023/12/21 10:46:31;;;;;;;12.43;1.92;;;;;;;;;;4819532;29;20046;-87
2023/12/21 10:49:01;;;;;;;9.80;1.90;;;;;;;;;;4828320;29;20129;-86
2023/12/21 10:51:37;;;;;;;10.73;2.40;;;;;;;;;;4837894;29;20053;-86
2023/12/21 10:54:06;;;;;;;8.93;1.77;;;;;;;;;;4836658;29;20057;-85
2023/12/21 10:56:32;;;;;;;12.15;2.30;;;;;;;;;;4839092;29;20053;-87
2023/12/21 10:59:05;;;;;;;8.32;2.05;;;;;;;;;;4836335;29;20048;-87
2023/12/21 11:01:32;;;;;;;11.65;2.13;;;;;;;;;;4838720;29;20058;-89
2023/12/21 11:03:59;;;;;;;9.55;1.98;;;;;;;;;;4838293;29;20556;-88
2023/12/21 11:06:25;;;;;;;11.07;1.98;;;;;;;;;;4838425;29;20102;-85
2023/12/21 11:08:52;;;;;;;5.55;1.70;;;;;;;;;;4836310;29;20060;-87
2023/12/21 11:11:22;;;;;;;7.85;2.67;;;;;;;;;;4854885;29;20054;-86
2023/12/21 11:13:52;;;;;;;12.35;2.35;;;;;;;;;;4836744;29;20054;-85
2023/12/21 11:16:20;;;;;;;9.38;2.00;;;;;;;;;;4838499;29;20053;-85
2023/12/21 11:18:47;;;;;;;16.02;2.47;;;;;;;;;;4837904;29;20104;-85
2023/12/21 11:21:14;;;;;;;7.00;1.80;;;;;;;;;;4834660;29;20568;-86
2023/12/21 11:23:46;;;;;;;13.45;2.20;;;;;;;;;;4848597;29;20061;-87
2023/12/21 11:26:20;;;;;;;11.05;2.42;;;;;;;;;;4839613;29;20053;-89
2023/12/21 11:28:46;;;;;;;7.60;1.67;;;;;;;;;;4851250;29;20137;-86
2023/12/21 11:31:13;;;;;;;13.02;2.60;;;;;;;;;;4833638;29;20052;-85
2023/12/21 11:33:39;;;;;;;9.77;2.20;;;;;;;;;;4837203;29;20050;-87
2023/12/21 11:36:06;;;;;;;6.03;2.22;;;;;;;;;;4854756;29;20059;-84
2023/12/21 11:38:45;;;;;;;11.73;2.22;;;;;;;;;;4855322;29;20534;-85
2023/12/21 11:41:11;;;;;;;12.88;2.85;;;;;;;;;;4855277;29;20786;-84
2023/12/21 11:43:37;;;;;;;12.40;2.42;;;;;;;;;;4836677;29;20069;-85
2023/12/21 11:46:03;;;;;;;10.40;2.33;;;;;;;;;;4827001;29;20054;-84
2023/12/21 11:48:32;;;;;;;9.98;2.28;;;;;;;;;;4836270;29;20038;-86
2023/12/21 11:51:02;;;;;;;13.05;3.03;;;;;;;;;;4836692;29;20095;-85
2023/12/21 11:53:28;;;;;;;15.75;2.70;;;;;;;;;;4835408;29;20141;-85
2023/12/21 11:55:54;;;;;;;15.88;2.60;;;;;;;;;;4835931;29;20049;-85
2023/12/21 11:58:22;;;;;;;12.73;2.42;;;;;;;;;;4835932;29;20045;-84
2023/12/21 12:00:52;;;;;;;15.45;2.95;;;;;;;;;;4847954;29;20104;-84
2023/12/21 12:03:19;;;;;;;9.40;2.30;;;;;;;;;;4850122;29;20054;-86
2023/12/21 12:05:45;;;;;;;12.43;2.78;;;;;;;;;;4849523;29;20129;-84
2023/12/21 12:08:11;;;;;;;15.27;3.00;;;;;;;;;;4835213;29;20054;-86
2023/12/21 12:10:38;;;;;;;11.93;2.88;;;;;;;;;;4836450;29;20061;-85
2023/12/21 12:13:05;;;;;;;13.73;2.85;;;;;;;;;;4838164;29;20568;-84
2023/12/21 12:15:31;;;;;;;13.52;2.65;;;;;;;;;;4835766;29;20109;-84
2023/12/21 12:17:57;;;;;;;13.00;2.75;;;;;;;;;;4837617;29;20050;-84
2023/12/21 12:20:23;;;;;;;8.35;2.33;;;;;;;;;;4836111;29;20168;-84
2023/12/21 12:22:53;;;;;;;16.67;2.97;;;;;;;;;;4836027;29;20092;-84
2023/12/21 12:25:19;;;;;;;14.60;2.97;;;;;;;;;;4836443;29;20065;-85
2023/12/21 12:27:46;;;;;;;13.95;3.13;;;;;;;;;;4836196;29;20058;-84
2023/12/21 12:30:13;;;;;;;20.00;3.33;;;;;;;;;;4837608;29;20133;-86
2023/12/21 12:32:39;;;;;;;12.05;3.03;;;;;;;;;;4837544;29;20065;-86
2023/12/21 12:35:07;;;;;;;8.88;2.13;;;;;;;;;;4833568;29;20136;-85
2023/12/21 12:37:35;;;;;;;10.23;2.80;;;;;;;;;;4819230;29;20793;-88
2023/12/21 12:40:04;;;;;;;16.88;2.80;;;;;;;;;;4819069;29;20050;-85
2023/12/21 12:42:30;;;;;;;12.50;2.90;;;;;;;;;;4817808;29;20054;-85
2023/12/21 12:44:56;;;;;;;15.60;3.10;;;;;;;;;;4817989;29;20073;-85
2023/12/21 12:47:23;;;;;;;16.08;2.67;;;;;;;;;;4834048;29;20568;-85
2023/12/21 12:49:49;;;;;;;12.05;2.28;;;;;;;;;;4835784;29;20053;-85
2023/12/21 12:52:19;;;;;;;17.98;3.22;;;;;;;;;;4836162;29;20497;-86
2023/12/21 12:54:48;;;;;;;13.02;2.90;;;;;;;;;;4836763;29;20194;-87
2023/12/21 12:57:16;;;;;;;12.82;2.53;;;;;;;;;;4823685;29;20054;-87
2023/12/21 12:59:44;;;;;;;17.15;2.67;;;;;;;;;;4817474;29;20188;-84
2023/12/21 13:02:10;;;;;;;21.10;3.50;;;;;;;;;;4817635;29;20050;-84
2023/12/21 13:04:36;;;;;;;13.68;2.67;;;;;;;;;;4818112;29;20517;-86
2023/12/21 13:07:02;;;;;;;13.57;3.47;;;;;;;;;;4817864;29;20050;-86
2023/12/21 13:09:30;;;;;;;16.80;3.53;;;;;;;;;;4820973;29;20070;-86
2023/12/21 13:11:56;;;;;;;12.75;2.65;;;;;;;;;;4836655;29;20097;-86
2023/12/21 13:14:22;;;;;;;15.63;3.08;;;;;;;;;;4839199;29;20054;-87
2023/12/21 13:16:48;;;;;;;14.48;2.80;;;;;;;;;;4838949;29;20054;-85
2023/12/21 13:19:14;;;;;;;17.75;3.10;;;;;;;;;;4839375;29;20054;-86
2023/12/21 13:21:43;;;;;;;13.10;2.70;;;;;;;;;;4838826;29;20064;-84
2023/12/21 13:24:09;;;;;;;17.13;3.55;;;;;;;;;;4839223;29;20062;-85
2023/12/21 13:26:36;;;;;;;13.45;3.20;;;;;;;;;;4838576;29;20118;-86
2023/12/21 13:29:04;;;;;;;12.52;2.83;;;;;;;;;;4837065;29;20054;-85
2023/12/21 13:31:30;;;;;;;13.15;2.63;;;;;;;;;;4836590;29;20069;-86
2023/12/21 13:33:56;;;;;;;18.23;3.95;;;;;;;;;;4837515;29;20062;-84
2023/12/21 13:36:23;;;;;;;11.82;3.00;;;;;;;;;;4837102;29;20461;-87
2023/12/21 13:38:49;;;;;;;21.25;3.70;;;;;;;;;;4837956;29;20060;-84
2023/12/21 13:41:15;;;;;;;12.23;2.88;;;;;;;;;;4838063;29;20058;-85
2023/12/21 13:43:44;;;;;;;12.93;2.80;;;;;;;;;;4838887;29;20069;-84
2023/12/21 13:46:11;;;;;;;15.82;2.80;;;;;;;;;;4838000;29;20057;-84
2023/12/21 13:48:37;;;;;;;18.42;3.05;;;;;;;;;;4829600;29;20054;-85
2023/12/21 13:51:03;;;;;;;14.10;3.60;;;;;;;;;;4850273;29;20764;-87
2023/12/21 13:53:29;;;;;;;11.00;2.65;;;;;;;;;;4838627;29;20492;-89
2023/12/21 13:55:55;;;;;;;17.58;3.42;;;;;;;;;;4837967;29;20053;-84
2023/12/21 13:58:21;;;;;;;11.77;2.80;;;;;;;;;;4839899;29;20193;-83
2023/12/21 14:00:49;;;;;;;18.75;3.38;;;;;;;;;;4823153;29;20520;-83
2023/12/21 14:03:16;;;;;;;14.63;3.88;;;;;;;;;;4839222;29;20533;-85
2023/12/21 14:05:42;;;;;;;17.65;3.35;;;;;;;;;;4838975;29;20432;-84
2023/12/21 14:08:08;;;;;;;16.42;3.40;;;;;;;;;;4838971;29;20165;-85
2023/12/21 14:10:34;;;;;;;16.17;3.55;;;;;;;;;;4838657;29;20046;-85
2023/12/21 14:13:01;;;;;;;15.68;2.67;;;;;;;;;;4837901;29;20129;-86
2023/12/21 14:15:27;;;;;;;14.25;3.17;;;;;;;;;;4839712;29;20050;-89
2023/12/21 14:17:53;;;;;;;10.77;2.67;;;;;;;;;;4838136;29;20462;-85
2023/12/21 14:20:22;;;;;;;13.25;2.90;;;;;;;;;;4839321;29;20049;-83
2023/12/21 14:22:49;;;;;;;15.93;3.47;;;;;;;;;;4838568;29;20053;-85
2023/12/21 14:25:15;;;;;;;18.00;3.15;;;;;;;;;;4837842;29;20563;-84
2023/12/21 14:27:42;;;;;;;9.38;2.35;;;;;;;;;;4837365;29;20046;-84
2023/12/21 14:30:09;;;;;;;9.35;2.15;;;;;;;;;;4853750;29;20470;-83
2023/12/21 14:32:35;;;;;;;8.23;2.28;;;;;;;;;;4839461;29;20073;-85